Accueil
METAR-TAF:

METAR-TAF

Aéroports :

Boscombe Down, Angleterre

latitude: 51-10N, longitude: 001-45W, altitude: 124 m

Observation

Le bulletin a été fait il y a 48 minutes, à 05:50 UTC
Vent 16 kt de sud/sud-ouest
Température 12°C
Humidité 82%
Pression 1001 hPa
Visibilité 10 km ou plus

METAR: EGDM 210550Z AUTO 21016KT 9999 BKN024/// 12/09 Q1001 RERA

Heure: 07:38 (06:38 UTC)

Prévision

Le bulletin a été fait il y a 19 heures et 51 minutes, à 10:47 UTC
Prévision valable du 20 à 12 UTC au 20 à 17 UTC
Vent 13 kt de ouest/sud-ouest
Nuages épars à une hauteur de 2500 ft
Probabilité 40% :
Temporairement
du 20 à 12 UTC au 20 à 13 UTC
Vent 15 kt de ouest/sud-ouest avec des rafales jusqu'à 25 kt

TAF: EGDM 201047Z 2012/2017 24013KT SCT025 PROB40 TEMPO 2012/2013 25015G25KT

Observations et prévisions météorologiques de plus de 4000 aéroports (messages METAR et TAF).

Les stations disponibles sont représentées par des disques jaunes et rouges sur la carte.

Passer la souris dessus pour voir le nom de la station.

Cliquer dessus pour voir les observations et prévisions météorologiques.

Pour changer de carte: cliquez sur les boutons verts avec une croix noire pour zoomer, sur le bouton vert avec un tiret pour effectuer un zoom arrière, ou sur les flèches vertes pour les cartes adjacentes.


METAR-TAF: